sensor_id;sensor_type;location;lat;lon;timestamp;P1;durP1;ratioP1;P2;durP2;ratioP2
47762;SDS011;33526;42.690;23.322;2023-02-26T00:05:35;15.23;;;4.63;;
47762;SDS011;33526;42.690;23.322;2023-02-26T00:08:01;14.68;;;4.85;;
47762;SDS011;33526;42.690;23.322;2023-02-26T00:10:31;15.57;;;4.82;;
47762;SDS011;33526;42.690;23.322;2023-02-26T00:13:02;13.23;;;5.13;;
47762;SDS011;33526;42.690;23.322;2023-02-26T00:15:30;15.95;;;4.55;;
47762;SDS011;33526;42.690;23.322;2023-02-26T00:18:01;21.20;;;5.75;;
47762;SDS011;33526;42.690;23.322;2023-02-26T00:20:31;11.68;;;5.68;;
47762;SDS011;33526;42.690;23.322;2023-02-26T00:22:58;17.00;;;4.05;;
47762;SDS011;33526;42.690;23.322;2023-02-26T00:25:32;21.52;;;5.10;;
47762;SDS011;33526;42.690;23.322;2023-02-26T00:28:00;14.82;;;5.50;;
47762;SDS011;33526;42.690;23.322;2023-02-26T00:30:29;15.48;;;4.00;;
47762;SDS011;33526;42.690;23.322;2023-02-26T00:32:58;15.65;;;5.30;;
47762;SDS011;33526;42.690;23.322;2023-02-26T00:35:24;18.67;;;4.45;;
47762;SDS011;33526;42.690;23.322;2023-02-26T00:37:58;14.23;;;4.07;;
47762;SDS011;33526;42.690;23.322;2023-02-26T00:43:23;10.60;;;4.38;;
47762;SDS011;33526;42.690;23.322;2023-02-26T00:46:14;11.27;;;4.95;;
47762;SDS011;33526;42.690;23.322;2023-02-26T00:52:02;12.82;;;4.70;;
47762;SDS011;33526;42.690;23.322;2023-02-26T00:54:36;13.88;;;3.95;;
47762;SDS011;33526;42.690;23.322;2023-02-26T00:57:05;15.02;;;4.20;;
47762;SDS011;33526;42.690;23.322;2023-02-26T01:07:23;21.35;;;5.05;;
47762;SDS011;33526;42.690;23.322;2023-02-26T01:49:26;12.27;;;4.05;;
47762;SDS011;33526;42.690;23.322;2023-02-26T01:51:53;16.45;;;4.18;;
47762;SDS011;33526;42.690;23.322;2023-02-26T01:54:32;20.35;;;3.88;;
47762;SDS011;33526;42.690;23.322;2023-02-26T01:57:05;8.80;;;3.83;;
47762;SDS011;33526;42.690;23.322;2023-02-26T01:59:34;13.95;;;3.45;;
47762;SDS011;33526;42.690;23.322;2023-02-26T02:02:03;16.40;;;3.40;;
47762;SDS011;33526;42.690;23.322;2023-02-26T02:04:31;14.88;;;3.88;;
47762;SDS011;33526;42.690;23.322;2023-02-26T02:06:57;13.75;;;4.20;;
47762;SDS011;33526;42.690;23.322;2023-02-26T02:09:24;20.58;;;4.30;;
47762;SDS011;33526;42.690;23.322;2023-02-26T02:15:13;11.15;;;3.35;;
47762;SDS011;33526;42.690;23.322;2023-02-26T02:23:16;14.90;;;3.50;;
47762;SDS011;33526;42.690;23.322;2023-02-26T02:34:12;16.10;;;3.25;;
47762;SDS011;33526;42.690;23.322;2023-02-26T02:36:44;13.80;;;4.00;;
47762;SDS011;33526;42.690;23.322;2023-02-26T02:39:18;14.88;;;3.15;;
47762;SDS011;33526;42.690;23.322;2023-02-26T02:42:07;12.20;;;3.83;;
47762;SDS011;33526;42.690;23.322;2023-02-26T02:44:45;17.10;;;3.45;;
47762;SDS011;33526;42.690;23.322;2023-02-26T02:47:17;11.15;;;3.53;;
47762;SDS011;33526;42.690;23.322;2023-02-26T02:49:56;13.57;;;3.13;;
47762;SDS011;33526;42.690;23.322;2023-02-26T02:52:37;18.03;;;3.30;;
47762;SDS011;33526;42.690;23.322;2023-02-26T02:55:23;8.18;;;2.92;;
47762;SDS011;33526;42.690;23.322;2023-02-26T02:58:05;22.48;;;4.35;;
47762;SDS011;33526;42.690;23.322;2023-02-26T03:00:34;14.55;;;4.22;;
47762;SDS011;33526;42.690;23.322;2023-02-26T03:05:55;11.82;;;3.13;;
47762;SDS011;33526;42.690;23.322;2023-02-26T03:08:21;16.27;;;3.65;;
47762;SDS011;33526;42.690;23.322;2023-02-26T03:10:51;11.40;;;3.05;;
47762;SDS011;33526;42.690;23.322;2023-02-26T03:13:18;19.23;;;4.22;;
47762;SDS011;33526;42.690;23.322;2023-02-26T03:18:46;24.85;;;3.30;;
47762;SDS011;33526;42.690;23.322;2023-02-26T03:24:19;7.45;;;3.60;;
47762;SDS011;33526;42.690;23.322;2023-02-26T03:26:55;15.73;;;3.35;;
47762;SDS011;33526;42.690;23.322;2023-02-26T03:30:13;16.50;;;4.57;;
47762;SDS011;33526;42.690;23.322;2023-02-26T03:32:35;11.07;;;3.35;;
47762;SDS011;33526;42.690;23.322;2023-02-26T03:37:56;16.05;;;4.50;;
47762;SDS011;33526;42.690;23.322;2023-02-26T03:41:09;15.65;;;5.38;;
47762;SDS011;33526;42.690;23.322;2023-02-26T03:43:26;13.27;;;3.70;;
47762;SDS011;33526;42.690;23.322;2023-02-26T03:45:57;15.85;;;4.00;;
47762;SDS011;33526;42.690;23.322;2023-02-26T03:48:27;15.65;;;3.47;;
47762;SDS011;33526;42.690;23.322;2023-02-26T03:50:57;9.00;;;3.60;;
47762;SDS011;33526;42.690;23.322;2023-02-26T03:53:30;15.68;;;3.42;;
47762;SDS011;33526;42.690;23.322;2023-02-26T03:58:33;10.43;;;3.08;;
47762;SDS011;33526;42.690;23.322;2023-02-26T04:01:01;9.18;;;3.00;;
47762;SDS011;33526;42.690;23.322;2023-02-26T04:03:32;15.80;;;3.28;;
47762;SDS011;33526;42.690;23.322;2023-02-26T04:06:28;12.95;;;3.40;;
47762;SDS011;33526;42.690;23.322;2023-02-26T04:08:54;11.00;;;2.80;;
47762;SDS011;33526;42.690;23.322;2023-02-26T04:11:21;20.90;;;3.83;;
47762;SDS011;33526;42.690;23.322;2023-02-26T04:13:49;13.20;;;3.92;;
47762;SDS011;33526;42.690;23.322;2023-02-26T04:16:15;11.60;;;3.28;;
47762;SDS011;33526;42.690;23.322;2023-02-26T04:18:42;9.52;;;3.90;;
47762;SDS011;33526;42.690;23.322;2023-02-26T04:21:12;9.18;;;3.63;;
47762;SDS011;33526;42.690;23.322;2023-02-26T04:23:40;11.82;;;3.58;;
47762;SDS011;33526;42.690;23.322;2023-02-26T04:26:05;11.02;;;3.15;;
47762;SDS011;33526;42.690;23.322;2023-02-26T04:28:31;13.63;;;3.78;;
47762;SDS011;33526;42.690;23.322;2023-02-26T04:30:57;13.40;;;3.80;;
47762;SDS011;33526;42.690;23.322;2023-02-26T04:33:23;9.48;;;2.70;;
47762;SDS011;33526;42.690;23.322;2023-02-26T04:35:50;16.90;;;3.53;;
47762;SDS011;33526;42.690;23.322;2023-02-26T04:38:16;11.48;;;3.53;;
47762;SDS011;33526;42.690;23.322;2023-02-26T04:40:41;16.30;;;3.28;;
47762;SDS011;33526;42.690;23.322;2023-02-26T04:43:07;19.42;;;4.03;;
47762;SDS011;33526;42.690;23.322;2023-02-26T04:45:32;20.58;;;4.68;;
47762;SDS011;33526;42.690;23.322;2023-02-26T04:47:58;17.08;;;4.30;;
47762;SDS011;33526;42.690;23.322;2023-02-26T04:50:23;11.98;;;3.58;;
47762;SDS011;33526;42.690;23.322;2023-02-26T04:52:49;14.35;;;3.80;;
47762;SDS011;33526;42.690;23.322;2023-02-26T04:55:14;13.45;;;3.38;;
47762;SDS011;33526;42.690;23.322;2023-02-26T04:57:40;17.83;;;4.20;;
47762;SDS011;33526;42.690;23.322;2023-02-26T05:00:05;16.27;;;3.42;;
47762;SDS011;33526;42.690;23.322;2023-02-26T05:02:32;19.50;;;3.30;;
47762;SDS011;33526;42.690;23.322;2023-02-26T05:04:57;19.30;;;3.65;;
47762;SDS011;33526;42.690;23.322;2023-02-26T05:07:23;15.45;;;3.13;;
47762;SDS011;33526;42.690;23.322;2023-02-26T05:09:48;9.85;;;2.92;;
47762;SDS011;33526;42.690;23.322;2023-02-26T05:12:14;12.05;;;3.90;;
47762;SDS011;33526;42.690;23.322;2023-02-26T05:14:40;14.50;;;3.60;;
47762;SDS011;33526;42.690;23.322;2023-02-26T05:17:06;14.25;;;3.30;;
47762;SDS011;33526;42.690;23.322;2023-02-26T05:19:31;17.67;;;3.70;;
47762;SDS011;33526;42.690;23.322;2023-02-26T05:21:57;16.02;;;3.83;;
47762;SDS011;33526;42.690;23.322;2023-02-26T05:24:22;15.45;;;3.10;;
47762;SDS011;33526;42.690;23.322;2023-02-26T05:26:48;19.25;;;3.60;;
47762;SDS011;33526;42.690;23.322;2023-02-26T05:29:13;18.08;;;3.30;;
47762;SDS011;33526;42.690;23.322;2023-02-26T05:31:38;18.33;;;2.97;;
47762;SDS011;33526;42.690;23.322;2023-02-26T05:34:04;16.88;;;3.80;;
47762;SDS011;33526;42.690;23.322;2023-02-26T05:36:29;13.35;;;3.05;;
47762;SDS011;33526;42.690;23.322;2023-02-26T05:38:55;15.73;;;3.15;;
47762;SDS011;33526;42.690;23.322;2023-02-26T05:41:20;15.65;;;3.63;;
47762;SDS011;33526;42.690;23.322;2023-02-26T05:43:46;10.75;;;2.60;;
47762;SDS011;33526;42.690;23.322;2023-02-26T05:46:11;14.90;;;3.20;;
47762;SDS011;33526;42.690;23.322;2023-02-26T05:48:38;15.97;;;3.77;;
47762;SDS011;33526;42.690;23.322;2023-02-26T05:51:03;16.50;;;2.97;;
47762;SDS011;33526;42.690;23.322;2023-02-26T05:53:29;13.50;;;3.60;;
47762;SDS011;33526;42.690;23.322;2023-02-26T05:55:54;12.27;;;3.25;;
47762;SDS011;33526;42.690;23.322;2023-02-26T05:58:24;23.90;;;3.78;;
47762;SDS011;33526;42.690;23.322;2023-02-26T06:15:01;12.52;;;3.40;;
47762;SDS011;33526;42.690;23.322;2023-02-26T06:18:16;15.25;;;3.28;;
47762;SDS011;33526;42.690;23.322;2023-02-26T06:36:06;21.77;;;3.83;;
47762;SDS011;33526;42.690;23.322;2023-02-26T08:44:09;26.92;;;3.90;;
47762;SDS011;33526;42.690;23.322;2023-02-26T08:47:31;19.13;;;3.63;;
47762;SDS011;33526;42.690;23.322;2023-02-26T08:50:08;18.42;;;3.38;;
47762;SDS011;33526;42.690;23.322;2023-02-26T09:09:51;96.82;;;41.72;;
47762;SDS011;33526;42.690;23.322;2023-02-26T09:12:32;16.88;;;3.53;;
47762;SDS011;33526;42.690;23.322;2023-02-26T09:15:26;24.15;;;4.75;;
47762;SDS011;33526;42.690;23.322;2023-02-26T09:47:46;24.50;;;4.60;;
47762;SDS011;33526;42.690;23.322;2023-02-26T09:50:18;25.52;;;6.05;;
47762;SDS011;33526;42.690;23.322;2023-02-26T10:04:59;21.05;;;5.00;;
47762;SDS011;33526;42.690;23.322;2023-02-26T10:13:44;30.00;;;6.22;;
47762;SDS011;33526;42.690;23.322;2023-02-26T10:35:30;15.55;;;3.35;;
47762;SDS011;33526;42.690;23.322;2023-02-26T10:41:39;22.40;;;4.57;;
47762;SDS011;33526;42.690;23.322;2023-02-26T10:56:48;33.78;;;13.63;;
47762;SDS011;33526;42.690;23.322;2023-02-26T10:59:40;17.00;;;4.70;;
47762;SDS011;33526;42.690;23.322;2023-02-26T11:04:39;18.02;;;4.68;;
47762;SDS011;33526;42.690;23.322;2023-02-26T11:07:41;19.10;;;4.40;;
47762;SDS011;33526;42.690;23.322;2023-02-26T11:12:46;15.48;;;4.10;;
47762;SDS011;33526;42.690;23.322;2023-02-26T11:21:24;19.30;;;3.95;;
47762;SDS011;33526;42.690;23.322;2023-02-26T11:24:22;20.00;;;3.20;;
47762;SDS011;33526;42.690;23.322;2023-02-26T13:34:44;23.13;;;6.35;;
47762;SDS011;33526;42.690;23.322;2023-02-26T15:30:57;22.08;;;6.00;;
47762;SDS011;33526;42.690;23.322;2023-02-26T15:34:11;29.88;;;5.85;;
47762;SDS011;33526;42.690;23.322;2023-02-26T15:37:00;22.55;;;5.85;;
47762;SDS011;33526;42.690;23.322;2023-02-26T15:42:53;28.63;;;6.00;;
47762;SDS011;33526;42.690;23.322;2023-02-26T15:45:56;23.52;;;6.25;;
47762;SDS011;33526;42.690;23.322;2023-02-26T15:52:47;39.88;;;8.50;;
47762;SDS011;33526;42.690;23.322;2023-02-26T15:55:57;35.90;;;8.50;;
47762;SDS011;33526;42.690;23.322;2023-02-26T16:18:04;17.77;;;5.60;;
47762;SDS011;33526;42.690;23.322;2023-02-26T16:52:45;57.15;;;25.02;;
47762;SDS011;33526;42.690;23.322;2023-02-26T17:47:33;26.15;;;7.07;;
47762;SDS011;33526;42.690;23.322;2023-02-26T18:13:59;29.60;;;6.90;;
47762;SDS011;33526;42.690;23.322;2023-02-26T18:22:03;64.22;;;27.20;;
47762;SDS011;33526;42.690;23.322;2023-02-26T18:27:55;28.92;;;9.05;;
47762;SDS011;33526;42.690;23.322;2023-02-26T18:30:57;26.63;;;7.95;;
47762;SDS011;33526;42.690;23.322;2023-02-26T18:37:15;21.58;;;6.85;;
47762;SDS011;33526;42.690;23.322;2023-02-26T18:46:58;132.18;;;39.40;;
47762;SDS011;33526;42.690;23.322;2023-02-26T18:50:14;132.90;;;36.08;;
47762;SDS011;33526;42.690;23.322;2023-02-26T18:53:21;138.65;;;39.92;;
47762;SDS011;33526;42.690;23.322;2023-02-26T18:56:46;140.50;;;34.45;;
47762;SDS011;33526;42.690;23.322;2023-02-26T19:05:17;136.18;;;34.65;;
47762;SDS011;33526;42.690;23.322;2023-02-26T19:07:51;137.45;;;34.38;;
47762;SDS011;33526;42.690;23.322;2023-02-26T19:10:52;123.65;;;31.63;;
47762;SDS011;33526;42.690;23.322;2023-02-26T19:13:35;105.13;;;28.13;;
47762;SDS011;33526;42.690;23.322;2023-02-26T19:16:59;84.95;;;24.50;;
47762;SDS011;33526;42.690;23.322;2023-02-26T19:19:53;84.20;;;25.67;;
47762;SDS011;33526;42.690;23.322;2023-02-26T19:22:41;110.05;;;35.10;;
47762;SDS011;33526;42.690;23.322;2023-02-26T21:44:35;27.60;;;9.20;;
47762;SDS011;33526;42.690;23.322;2023-02-26T21:53:17;54.78;;;23.85;;
47762;SDS011;33526;42.690;23.322;2023-02-26T22:05:13;26.52;;;8.73;;
47762;SDS011;33526;42.690;23.322;2023-02-26T22:14:06;32.80;;;9.68;;
47762;SDS011;33526;42.690;23.322;2023-02-26T22:16:58;27.75;;;8.65;;
47762;SDS011;33526;42.690;23.322;2023-02-26T22:30:13;29.33;;;9.30;;
47762;SDS011;33526;42.690;23.322;2023-02-26T22:32:54;39.33;;;9.40;;
47762;SDS011;33526;42.690;23.322;2023-02-26T22:44:06;30.80;;;8.95;;
47762;SDS011;33526;42.690;23.322;2023-02-26T22:46:38;32.47;;;10.80;;
47762;SDS011;33526;42.690;23.322;2023-02-26T22:49:17;34.08;;;11.02;;
47762;SDS011;33526;42.690;23.322;2023-02-26T22:52:23;26.02;;;9.27;;
47762;SDS011;33526;42.690;23.322;2023-02-26T22:57:57;35.30;;;9.32;;
47762;SDS011;33526;42.690;23.322;2023-02-26T23:04:51;28.83;;;9.50;;
47762;SDS011;33526;42.690;23.322;2023-02-26T23:22:09;38.72;;;9.65;;
